createdAt,value
2022-08-22T00:04:20.231Z,69.57
2022-08-22T00:09:58.705Z,69.96
2022-08-22T00:15:42.160Z,70.23
2022-08-22T00:21:18.220Z,70.37
2022-08-22T00:27:02.148Z,70.08
2022-08-22T00:32:37.286Z,69.86
2022-08-22T00:38:11.162Z,70.05
2022-08-22T00:43:39.600Z,70.07
2022-08-22T00:49:17.020Z,70.36
2022-08-22T00:54:53.654Z,70.54
2022-08-22T01:00:05.371Z,70.85
2022-08-22T01:05:20.497Z,70.70
2022-08-22T01:10:58.096Z,70.38
2022-08-22T01:16:41.958Z,70.31
2022-08-22T01:22:22.281Z,70.52
2022-08-22T01:27:37.038Z,70.80
2022-08-22T01:33:18.403Z,70.71
2022-08-22T01:39:02.072Z,70.63
2022-08-22T01:44:45.989Z,71.18
2022-08-22T01:50:00.628Z,71.35
2022-08-22T01:55:21.186Z,71.26
2022-08-22T02:00:35.528Z,71.31
2022-08-22T02:05:54.030Z,71.23
2022-08-22T02:11:12.143Z,71.28
2022-08-22T02:17:14.864Z,71.51
2022-08-22T02:22:44.505Z,71.60
2022-08-22T02:28:15.066Z,71.89
2022-08-22T02:33:45.845Z,71.27
2022-08-22T02:39:31.647Z,70.92
2022-08-22T02:44:53.064Z,70.92
2022-08-22T02:50:23.952Z,71.29
2022-08-22T02:55:34.031Z,71.68
2022-08-22T03:01:23.905Z,71.84
2022-08-22T03:06:50.171Z,71.78
2022-08-22T03:12:25.052Z,71.52
2022-08-22T03:17:55.581Z,71.77
2022-08-22T03:23:08.661Z,71.79
2022-08-22T03:28:59.427Z,71.88
2022-08-22T03:34:26.882Z,72.15
2022-08-22T03:39:56.930Z,72.28
2022-08-22T03:45:52.516Z,72.79
2022-08-22T03:51:21.960Z,73.41
2022-08-22T03:57:10.761Z,73.70
2022-08-22T04:03:07.899Z,74.18
2022-08-22T04:08:26.450Z,74.44
2022-08-22T04:14:01.404Z,74.53
2022-08-22T04:19:22.851Z,74.68
2022-08-22T04:25:12.252Z,74.38
2022-08-22T04:31:06.109Z,74.46
2022-08-22T04:36:20.717Z,74.44
2022-08-22T04:41:52.409Z,73.99
2022-08-22T04:47:05.257Z,73.90
2022-08-22T04:53:09.193Z,74.16
2022-08-22T04:58:48.663Z,74.54
2022-08-22T05:04:06.963Z,74.81
2022-08-22T05:09:19.367Z,74.96
2022-08-22T05:14:43.654Z,74.97
2022-08-22T05:19:54.027Z,74.89
2022-08-22T05:25:04.891Z,74.48
2022-08-22T05:30:17.053Z,74.40
2022-08-22T05:35:36.116Z,74.41
2022-08-22T05:40:43.232Z,74.45
2022-08-22T05:45:48.060Z,74.23
2022-08-22T05:51:02.034Z,74.03
2022-08-22T05:56:41.102Z,73.90
2022-08-22T06:01:55.374Z,74.04
2022-08-22T06:07:18.392Z,74.28
2022-08-22T06:12:29.549Z,74.05
2022-08-22T06:17:43.166Z,74.19
2022-08-22T06:23:11.084Z,73.89
2022-08-22T06:28:29.731Z,73.07
2022-08-22T06:33:40.251Z,73.14
2022-08-22T06:38:53.741Z,72.92
2022-08-22T06:43:59.011Z,73.10
2022-08-22T06:49:04.764Z,72.87
2022-08-22T06:54:18.316Z,72.51
2022-08-22T06:59:32.296Z,71.52
2022-08-22T07:04:36.605Z,71.39
2022-08-22T07:09:42.106Z,71.52
2022-08-22T07:14:55.912Z,71.30
2022-08-22T07:20:22.735Z,71.04
2022-08-22T07:25:27.730Z,70.78
2022-08-22T07:31:02.058Z,70.75
2022-08-22T07:36:55.530Z,70.54
2022-08-22T07:42:10.077Z,70.50
2022-08-22T07:47:26.532Z,70.46
2022-08-22T07:52:40.685Z,70.66
2022-08-22T07:58:01.864Z,69.90
2022-08-22T08:03:11.984Z,70.26
2022-08-22T08:08:34.717Z,69.79
2022-08-22T08:13:43.957Z,69.26
2022-08-22T08:18:51.267Z,69.17
2022-08-22T08:23:55.137Z,69.48
2022-08-22T08:28:59.689Z,68.67
2022-08-22T08:34:32.668Z,68.40
2022-08-22T08:39:42.253Z,67.99
2022-08-22T08:45:05.141Z,67.65
2022-08-22T08:50:44.046Z,66.99
2022-08-22T08:56:03.285Z,66.51
2022-08-22T09:01:34.100Z,65.93
2022-08-22T09:06:56.718Z,65.14
2022-08-22T09:12:36.596Z,64.60
2022-08-22T09:18:24.362Z,64.25
2022-08-22T09:24:11.230Z,63.53
2022-08-22T09:29:54.456Z,63.22
2022-08-22T09:35:13.083Z,62.91
2022-08-22T09:40:37.294Z,62.65
2022-08-22T09:46:19.776Z,62.40
2022-08-22T09:52:02.643Z,61.92
2022-08-22T09:57:40.033Z,61.54
2022-08-22T10:03:06.146Z,61.69
2022-08-22T10:08:19.723Z,62.20
2022-08-22T10:14:03.682Z,61.65
2022-08-22T10:19:30.702Z,61.47
2022-08-22T10:24:58.628Z,61.03
2022-08-22T10:30:32.828Z,60.85
2022-08-22T10:36:12.022Z,61.48
2022-08-22T10:42:00.272Z,61.28
2022-08-22T10:47:15.264Z,61.43
2022-08-22T10:52:43.225Z,61.07
2022-08-22T10:58:07.279Z,60.98
2022-08-22T11:03:48.722Z,60.78
2022-08-22T11:09:09.313Z,60.93
2022-08-22T11:15:03.034Z,60.40
2022-08-22T11:20:25.469Z,60.65
2022-08-22T11:26:14.464Z,60.50
2022-08-22T11:31:47.199Z,60.01
2022-08-22T11:37:11.087Z,59.25
2022-08-22T11:42:33.498Z,58.75
2022-08-22T11:47:56.634Z,58.48
2022-08-22T11:53:15.361Z,57.98
2022-08-22T11:58:28.823Z,58.16
2022-08-22T12:04:28.737Z,57.37
2022-08-22T12:09:55.463Z,57.98
2022-08-22T12:15:21.276Z,57.69
2022-08-22T12:20:45.883Z,57.96
2022-08-22T12:26:11.048Z,57.74
2022-08-22T12:31:31.586Z,58.02
2022-08-22T12:36:55.249Z,57.58
2022-08-22T12:42:20.170Z,57.64
2022-08-22T12:48:00.829Z,57.92
2022-08-22T12:53:20.338Z,57.35
2022-08-22T12:59:22.781Z,57.70
2022-08-22T13:04:33.545Z,57.68
2022-08-22T13:09:49.052Z,57.38
2022-08-22T13:15:27.552Z,57.62
2022-08-22T13:20:31.886Z,57.22
2022-08-22T13:26:07.695Z,56.90
2022-08-22T13:31:24.895Z,57.15
2022-08-22T13:36:31.722Z,56.68
2022-08-22T13:42:00.727Z,56.37
2022-08-22T13:47:14.600Z,56.38
2022-08-22T13:52:30.575Z,56.93
2022-08-22T13:57:51.967Z,57.27
2022-08-22T14:03:26.415Z,56.37
2022-08-22T14:08:36.677Z,55.79
2022-08-22T14:13:59.547Z,55.43
2022-08-22T14:19:14.618Z,55.83
2022-08-22T14:24:31.959Z,56.24
2022-08-22T14:29:50.414Z,55.87
2022-08-22T14:35:04.469Z,54.65
2022-08-22T14:40:18.305Z,54.74
2022-08-22T14:45:33.045Z,55.57
2022-08-22T14:51:01.507Z,55.69
2022-08-22T14:56:30.293Z,55.08
2022-08-22T15:02:13.777Z,55.00
2022-08-22T15:07:35.132Z,54.90
2022-08-22T15:12:49.750Z,54.89
2022-08-22T15:17:53.468Z,55.04
2022-08-22T15:23:18.363Z,54.87
2022-08-22T15:28:22.247Z,54.66
2022-08-22T15:33:32.991Z,55.31
2022-08-22T15:38:42.058Z,55.82
2022-08-22T15:44:32.166Z,55.77
2022-08-22T15:49:51.283Z,55.64
2022-08-22T15:54:54.258Z,55.33
2022-08-22T16:00:27.920Z,55.29
2022-08-22T16:05:46.584Z,55.31
2022-08-22T16:11:02.937Z,55.49
2022-08-22T16:16:27.521Z,55.24
2022-08-22T16:21:30.448Z,55.27
2022-08-22T16:26:44.252Z,55.32
2022-08-22T16:31:47.313Z,55.13
2022-08-22T16:37:08.941Z,55.09
2022-08-22T16:42:20.904Z,55.10
2022-08-22T16:47:33.147Z,55.55
2022-08-22T16:52:50.530Z,55.52
2022-08-22T16:58:15.059Z,55.98
2022-08-22T17:04:05.312Z,56.19
2022-08-22T17:09:47.672Z,56.46
2022-08-22T17:15:24.724Z,56.86
2022-08-22T17:20:39.773Z,57.02
2022-08-22T17:26:10.856Z,57.31
2022-08-22T17:31:32.547Z,57.79
2022-08-22T17:36:45.984Z,57.96
2022-08-22T17:42:10.759Z,58.20
2022-08-22T17:47:33.790Z,58.62
2022-08-22T17:52:46.199Z,59.14
2022-08-22T17:57:57.885Z,59.30
2022-08-22T18:03:08.583Z,59.48
2022-08-22T18:14:25.960Z,59.62
2022-08-22T18:20:21.887Z,59.66
2022-08-22T18:25:41.813Z,60.23
2022-08-22T18:31:02.667Z,60.49
2022-08-22T18:36:12.255Z,60.83
2022-08-22T18:41:27.830Z,61.04
2022-08-22T18:46:45.575Z,61.13
2022-08-22T18:52:10.006Z,61.16
2022-08-22T18:57:58.953Z,61.48
2022-08-22T19:03:24.118Z,61.47
2022-08-22T19:09:02.127Z,61.51
2022-08-22T19:14:28.064Z,62.06
2022-08-22T19:20:22.489Z,62.39
2022-08-22T19:25:28.012Z,62.58
2022-08-22T19:30:36.332Z,62.63
2022-08-22T19:36:06.409Z,62.65
2022-08-22T19:41:09.530Z,62.75
2022-08-22T19:46:13.606Z,62.74
2022-08-22T19:51:19.576Z,63.29
2022-08-22T19:56:53.582Z,63.87
2022-08-22T20:02:20.350Z,64.37
2022-08-22T20:08:02.945Z,64.13
2022-08-22T20:13:23.029Z,63.89
2022-08-22T20:19:08.816Z,64.08
2022-08-22T20:24:49.249Z,64.36
2022-08-22T20:30:28.607Z,64.75
2022-08-22T20:35:59.283Z,65.28
2022-08-22T20:41:23.848Z,65.38
2022-08-22T20:46:39.456Z,65.37
2022-08-22T20:51:54.614Z,65.60
2022-08-22T20:57:16.233Z,65.85
2022-08-22T21:02:34.303Z,65.83
2022-08-22T21:07:43.055Z,66.04
2022-08-22T21:13:38.771Z,66.28
2022-08-22T21:18:48.207Z,66.32
2022-08-22T21:24:07.159Z,66.09
2022-08-22T21:29:13.117Z,66.13
2022-08-22T21:34:19.874Z,66.42
2022-08-22T21:39:34.231Z,66.46
2022-08-22T21:44:41.808Z,66.78
2022-08-22T21:50:12.919Z,67.40
2022-08-22T21:55:46.818Z,68.04
2022-08-22T22:00:57.654Z,67.97
2022-08-22T22:06:05.420Z,67.65
2022-08-22T22:11:14.545Z,68.00
2022-08-22T22:16:24.945Z,68.05
2022-08-22T22:21:28.374Z,68.10
2022-08-22T22:26:31.834Z,68.28
2022-08-22T22:31:34.866Z,68.47
2022-08-22T22:36:38.302Z,68.58
2022-08-22T22:41:41.307Z,68.95
2022-08-22T22:46:44.318Z,69.74
2022-08-22T22:51:47.328Z,70.36
2022-08-22T22:56:51.834Z,71.14
2022-08-22T23:02:05.748Z,71.47
2022-08-22T23:07:11.088Z,71.99
2022-08-22T23:12:15.441Z,72.74
2022-08-22T23:17:19.499Z,72.98
2022-08-22T23:22:22.478Z,72.86
2022-08-22T23:27:25.744Z,72.99
2022-08-22T23:32:29.163Z,73.29
2022-08-22T23:37:32.260Z,73.81
2022-08-22T23:42:35.632Z,73.99
2022-08-22T23:47:38.776Z,74.29
2022-08-22T23:52:42.247Z,74.59
2022-08-22T23:57:45.288Z,74.91
